sensor_id;sensor_type;location;lat;lon;timestamp;temperature;humidity
9116;DHT22;4593;53.652;10.168;2023-07-24T00:02:04;17.40;97.90
9116;DHT22;4593;53.652;10.168;2023-07-24T00:04:31;17.40;98.10
9116;DHT22;4593;53.652;10.168;2023-07-24T00:06:57;17.40;97.90
9116;DHT22;4593;53.652;10.168;2023-07-24T00:09:23;17.50;98.00
9116;DHT22;4593;53.652;10.168;2023-07-24T00:11:49;17.50;98.00
9116;DHT22;4593;53.652;10.168;2023-07-24T00:14:15;17.50;98.10
9116;DHT22;4593;53.652;10.168;2023-07-24T00:16:41;17.40;98.20
9116;DHT22;4593;53.652;10.168;2023-07-24T00:19:07;17.40;98.20
9116;DHT22;4593;53.652;10.168;2023-07-24T00:21:32;17.40;98.50
9116;DHT22;4593;53.652;10.168;2023-07-24T00:23:58;17.40;98.60
9116;DHT22;4593;53.652;10.168;2023-07-24T00:26:24;17.40;98.40
9116;DHT22;4593;53.652;10.168;2023-07-24T00:28:49;17.40;98.50
9116;DHT22;4593;53.652;10.168;2023-07-24T00:31:15;17.40;98.40
9116;DHT22;4593;53.652;10.168;2023-07-24T00:33:41;17.40;98.50
9116;DHT22;4593;53.652;10.168;2023-07-24T00:36:06;17.30;98.60
9116;DHT22;4593;53.652;10.168;2023-07-24T00:38:32;17.40;98.80
9116;DHT22;4593;53.652;10.168;2023-07-24T00:40:58;17.40;98.60
9116;DHT22;4593;53.652;10.168;2023-07-24T00:43:23;17.40;98.80
9116;DHT22;4593;53.652;10.168;2023-07-24T00:45:49;17.30;98.80
9116;DHT22;4593;53.652;10.168;2023-07-24T00:48:15;17.30;98.90
9116;DHT22;4593;53.652;10.168;2023-07-24T00:50:42;17.30;99.00
9116;DHT22;4593;53.652;10.168;2023-07-24T00:53:10;17.20;98.90
9116;DHT22;4593;53.652;10.168;2023-07-24T00:55:37;17.20;99.00
9116;DHT22;4593;53.652;10.168;2023-07-24T00:58:03;17.20;99.10
9116;DHT22;4593;53.652;10.168;2023-07-24T01:00:29;17.20;98.90
9116;DHT22;4593;53.652;10.168;2023-07-24T01:02:56;17.10;99.20
9116;DHT22;4593;53.652;10.168;2023-07-24T01:05:23;17.10;99.40
9116;DHT22;4593;53.652;10.168;2023-07-24T01:07:51;17.10;99.70
9116;DHT22;4593;53.652;10.168;2023-07-24T01:10:17;17.10;99.80
9116;DHT22;4593;53.652;10.168;2023-07-24T01:12:55;17.20;99.80
9116;DHT22;4593;53.652;10.168;2023-07-24T01:15:31;17.30;99.70
9116;DHT22;4593;53.652;10.168;2023-07-24T01:18:00;17.40;99.40
9116;DHT22;4593;53.652;10.168;2023-07-24T01:20:29;17.50;99.20
9116;DHT22;4593;53.652;10.168;2023-07-24T01:26:00;17.70;99.20
9116;DHT22;4593;53.652;10.168;2023-07-24T01:28:27;17.80;98.90
9116;DHT22;4593;53.652;10.168;2023-07-24T01:30:53;17.80;98.70
9116;DHT22;4593;53.652;10.168;2023-07-24T01:33:20;17.80;98.70
9116;DHT22;4593;53.652;10.168;2023-07-24T01:35:49;17.90;98.70
9116;DHT22;4593;53.652;10.168;2023-07-24T01:38:16;17.90;98.60
9116;DHT22;4593;53.652;10.168;2023-07-24T01:40:43;17.90;98.40
9116;DHT22;4593;53.652;10.168;2023-07-24T01:43:09;17.90;98.20
9116;DHT22;4593;53.652;10.168;2023-07-24T01:45:35;17.90;98.10
9116;DHT22;4593;53.652;10.168;2023-07-24T01:48:05;17.90;98.30
9116;DHT22;4593;53.652;10.168;2023-07-24T01:50:31;17.90;98.30
9116;DHT22;4593;53.652;10.168;2023-07-24T01:52:57;18.00;98.10
9116;DHT22;4593;53.652;10.168;2023-07-24T01:55:23;17.90;98.10
9116;DHT22;4593;53.652;10.168;2023-07-24T01:57:48;17.90;98.30
9116;DHT22;4593;53.652;10.168;2023-07-24T02:00:14;17.80;98.30
9116;DHT22;4593;53.652;10.168;2023-07-24T02:02:39;17.90;98.40
9116;DHT22;4593;53.652;10.168;2023-07-24T02:05:05;17.90;98.50
9116;DHT22;4593;53.652;10.168;2023-07-24T02:07:31;18.00;98.10
9116;DHT22;4593;53.652;10.168;2023-07-24T02:09:57;18.00;98.40
9116;DHT22;4593;53.652;10.168;2023-07-24T02:12:22;18.00;98.10
9116;DHT22;4593;53.652;10.168;2023-07-24T02:14:48;18.00;98.20
9116;DHT22;4593;53.652;10.168;2023-07-24T02:17:18;18.00;97.90
9116;DHT22;4593;53.652;10.168;2023-07-24T02:19:44;18.00;97.80
9116;DHT22;4593;53.652;10.168;2023-07-24T02:22:10;18.00;98.10
9116;DHT22;4593;53.652;10.168;2023-07-24T02:24:36;18.00;98.20
9116;DHT22;4593;53.652;10.168;2023-07-24T02:27:01;18.00;98.20
9116;DHT22;4593;53.652;10.168;2023-07-24T02:29:27;18.00;98.00
9116;DHT22;4593;53.652;10.168;2023-07-24T02:31:54;18.00;98.10
9116;DHT22;4593;53.652;10.168;2023-07-24T02:34:20;18.00;98.10
9116;DHT22;4593;53.652;10.168;2023-07-24T02:36:50;18.00;98.20
9116;DHT22;4593;53.652;10.168;2023-07-24T02:39:15;18.00;98.00
9116;DHT22;4593;53.652;10.168;2023-07-24T02:41:41;18.00;97.80
9116;DHT22;4593;53.652;10.168;2023-07-24T02:44:07;17.90;98.00
9116;DHT22;4593;53.652;10.168;2023-07-24T02:46:33;17.80;98.50
9116;DHT22;4593;53.652;10.168;2023-07-24T02:48:58;17.80;98.30
9116;DHT22;4593;53.652;10.168;2023-07-24T02:51:24;17.70;98.70
9116;DHT22;4593;53.652;10.168;2023-07-24T02:53:50;17.60;98.90
9116;DHT22;4593;53.652;10.168;2023-07-24T02:56:15;17.50;98.80
9116;DHT22;4593;53.652;10.168;2023-07-24T02:58:41;17.40;99.40
9116;DHT22;4593;53.652;10.168;2023-07-24T03:01:07;17.40;99.70
9116;DHT22;4593;53.652;10.168;2023-07-24T03:03:34;17.40;99.60
9116;DHT22;4593;53.652;10.168;2023-07-24T03:06:00;17.30;99.70
9116;DHT22;4593;53.652;10.168;2023-07-24T03:08:26;17.30;99.70
9116;DHT22;4593;53.652;10.168;2023-07-24T03:10:51;17.20;99.80
9116;DHT22;4593;53.652;10.168;2023-07-24T03:13:17;17.20;100.00
9116;DHT22;4593;53.652;10.168;2023-07-24T03:15:43;17.20;100.00
9116;DHT22;4593;53.652;10.168;2023-07-24T03:18:08;17.20;100.00
9116;DHT22;4593;53.652;10.168;2023-07-24T03:20:34;17.20;100.00
9116;DHT22;4593;53.652;10.168;2023-07-24T03:23:00;17.30;100.00
9116;DHT22;4593;53.652;10.168;2023-07-24T03:25:25;17.40;100.00
9116;DHT22;4593;53.652;10.168;2023-07-24T03:27:51;17.50;99.90
9116;DHT22;4593;53.652;10.168;2023-07-24T03:30:17;17.50;99.70
9116;DHT22;4593;53.652;10.168;2023-07-24T03:32:42;17.50;99.50
9116;DHT22;4593;53.652;10.168;2023-07-24T03:35:08;17.60;99.70
9116;DHT22;4593;53.652;10.168;2023-07-24T03:37:34;17.60;99.40
9116;DHT22;4593;53.652;10.168;2023-07-24T03:40:01;17.50;99.30
9116;DHT22;4593;53.652;10.168;2023-07-24T03:42:28;17.50;99.40
9116;DHT22;4593;53.652;10.168;2023-07-24T03:44:54;17.40;99.20
9116;DHT22;4593;53.652;10.168;2023-07-24T03:47:20;17.40;99.80
9116;DHT22;4593;53.652;10.168;2023-07-24T03:49:46;17.40;100.00
9116;DHT22;4593;53.652;10.168;2023-07-24T03:52:12;17.50;99.60
9116;DHT22;4593;53.652;10.168;2023-07-24T03:54:37;17.50;99.40
9116;DHT22;4593;53.652;10.168;2023-07-24T03:57:03;17.60;99.40
9116;DHT22;4593;53.652;10.168;2023-07-24T03:59:30;17.70;99.30
9116;DHT22;4593;53.652;10.168;2023-07-24T04:01:56;17.70;98.80
9116;DHT22;4593;53.652;10.168;2023-07-24T04:04:22;17.80;98.70
9116;DHT22;4593;53.652;10.168;2023-07-24T04:06:48;17.90;98.40
9116;DHT22;4593;53.652;10.168;2023-07-24T04:09:13;18.00;98.40
9116;DHT22;4593;53.652;10.168;2023-07-24T04:11:43;18.00;97.90
9116;DHT22;4593;53.652;10.168;2023-07-24T04:14:08;18.10;97.80
9116;DHT22;4593;53.652;10.168;2023-07-24T04:16:34;18.10;97.80
9116;DHT22;4593;53.652;10.168;2023-07-24T04:19:00;18.20;97.60
9116;DHT22;4593;53.652;10.168;2023-07-24T04:21:25;18.20;97.30
9116;DHT22;4593;53.652;10.168;2023-07-24T04:23:51;18.30;97.20
9116;DHT22;4593;53.652;10.168;2023-07-24T04:26:17;18.30;96.90
9116;DHT22;4593;53.652;10.168;2023-07-24T04:28:42;18.40;96.80
9116;DHT22;4593;53.652;10.168;2023-07-24T04:31:08;18.40;96.70
9116;DHT22;4593;53.652;10.168;2023-07-24T04:33:34;18.40;96.40
9116;DHT22;4593;53.652;10.168;2023-07-24T04:35:59;18.50;96.10
9116;DHT22;4593;53.652;10.168;2023-07-24T04:38:25;18.60;96.10
9116;DHT22;4593;53.652;10.168;2023-07-24T04:40:51;18.60;96.10
9116;DHT22;4593;53.652;10.168;2023-07-24T04:43:16;18.60;96.00
9116;DHT22;4593;53.652;10.168;2023-07-24T04:45:42;18.70;95.60
9116;DHT22;4593;53.652;10.168;2023-07-24T04:48:08;18.80;95.00
9116;DHT22;4593;53.652;10.168;2023-07-24T04:50:33;18.80;95.00
9116;DHT22;4593;53.652;10.168;2023-07-24T04:52:59;18.90;94.70
9116;DHT22;4593;53.652;10.168;2023-07-24T04:55:25;18.90;94.90
9116;DHT22;4593;53.652;10.168;2023-07-24T04:57:50;19.00;94.40
9116;DHT22;4593;53.652;10.168;2023-07-24T05:00:16;19.00;94.20
9116;DHT22;4593;53.652;10.168;2023-07-24T05:02:42;19.00;93.90
9116;DHT22;4593;53.652;10.168;2023-07-24T05:05:08;19.10;93.90
9116;DHT22;4593;53.652;10.168;2023-07-24T05:07:34;19.20;93.70
9116;DHT22;4593;53.652;10.168;2023-07-24T05:09:59;19.30;93.20
9116;DHT22;4593;53.652;10.168;2023-07-24T05:12:25;19.30;92.40
9116;DHT22;4593;53.652;10.168;2023-07-24T05:14:51;19.30;92.00
9116;DHT22;4593;53.652;10.168;2023-07-24T05:17:17;19.30;92.40
9116;DHT22;4593;53.652;10.168;2023-07-24T05:19:42;19.30;91.80
9116;DHT22;4593;53.652;10.168;2023-07-24T05:22:08;19.30;91.70
9116;DHT22;4593;53.652;10.168;2023-07-24T05:24:38;19.30;91.50
9116;DHT22;4593;53.652;10.168;2023-07-24T05:27:05;19.30;91.70
9116;DHT22;4593;53.652;10.168;2023-07-24T05:29:31;19.50;90.90
9116;DHT22;4593;53.652;10.168;2023-07-24T05:31:57;19.70;90.20
9116;DHT22;4593;53.652;10.168;2023-07-24T05:34:24;19.90;89.30
9116;DHT22;4593;53.652;10.168;2023-07-24T05:36:50;20.00;89.40
9116;DHT22;4593;53.652;10.168;2023-07-24T05:39:15;20.10;89.20
9116;DHT22;4593;53.652;10.168;2023-07-24T05:41:41;20.10;88.80
9116;DHT22;4593;53.652;10.168;2023-07-24T05:44:07;20.20;88.30
9116;DHT22;4593;53.652;10.168;2023-07-24T05:46:32;20.30;87.70
9116;DHT22;4593;53.652;10.168;2023-07-24T05:48:58;20.20;86.50
9116;DHT22;4593;53.652;10.168;2023-07-24T05:51:26;20.00;87.30
9116;DHT22;4593;53.652;10.168;2023-07-24T05:53:51;20.00;87.70
9116;DHT22;4593;53.652;10.168;2023-07-24T05:56:17;20.00;87.40
9116;DHT22;4593;53.652;10.168;2023-07-24T05:58:42;20.10;87.90
9116;DHT22;4593;53.652;10.168;2023-07-24T06:01:08;20.10;86.30
9116;DHT22;4593;53.652;10.168;2023-07-24T06:03:35;20.00;86.50
9116;DHT22;4593;53.652;10.168;2023-07-24T06:06:01;19.90;86.50
9116;DHT22;4593;53.652;10.168;2023-07-24T06:08:27;19.80;86.60
9116;DHT22;4593;53.652;10.168;2023-07-24T06:10:53;19.90;86.60
9116;DHT22;4593;53.652;10.168;2023-07-24T06:13:19;20.00;85.90
9116;DHT22;4593;53.652;10.168;2023-07-24T06:15:46;20.00;86.00
9116;DHT22;4593;53.652;10.168;2023-07-24T06:18:12;20.30;86.10
9116;DHT22;4593;53.652;10.168;2023-07-24T06:20:37;20.50;84.10
9116;DHT22;4593;53.652;10.168;2023-07-24T06:23:03;20.60;83.60
9116;DHT22;4593;53.652;10.168;2023-07-24T06:25:30;20.70;83.20
9116;DHT22;4593;53.652;10.168;2023-07-24T06:27:57;20.70;82.60
9116;DHT22;4593;53.652;10.168;2023-07-24T06:30:22;20.80;82.30
9116;DHT22;4593;53.652;10.168;2023-07-24T06:32:48;20.90;82.20
9116;DHT22;4593;53.652;10.168;2023-07-24T06:35:14;20.90;82.30
9116;DHT22;4593;53.652;10.168;2023-07-24T06:37:39;21.00;83.20
9116;DHT22;4593;53.652;10.168;2023-07-24T06:40:08;21.20;83.00
9116;DHT22;4593;53.652;10.168;2023-07-24T06:42:35;21.50;82.70
9116;DHT22;4593;53.652;10.168;2023-07-24T06:45:00;21.80;81.20
9116;DHT22;4593;53.652;10.168;2023-07-24T06:47:26;21.90;80.10
9116;DHT22;4593;53.652;10.168;2023-07-24T06:49:52;22.20;79.40
9116;DHT22;4593;53.652;10.168;2023-07-24T06:52:18;22.50;78.40
9116;DHT22;4593;53.652;10.168;2023-07-24T06:54:43;22.80;76.50
9116;DHT22;4593;53.652;10.168;2023-07-24T06:57:09;22.90;75.90
9116;DHT22;4593;53.652;10.168;2023-07-24T06:59:35;23.10;75.30
9116;DHT22;4593;53.652;10.168;2023-07-24T07:02:00;22.90;75.20
9116;DHT22;4593;53.652;10.168;2023-07-24T07:04:26;22.60;76.10
9116;DHT22;4593;53.652;10.168;2023-07-24T07:06:51;22.20;76.30
9116;DHT22;4593;53.652;10.168;2023-07-24T07:09:17;22.00;77.00
9116;DHT22;4593;53.652;10.168;2023-07-24T07:11:43;22.00;77.50
9116;DHT22;4593;53.652;10.168;2023-07-24T07:14:10;21.80;77.80
9116;DHT22;4593;53.652;10.168;2023-07-24T07:16:35;21.80;78.70
9116;DHT22;4593;53.652;10.168;2023-07-24T07:19:01;21.90;78.40
9116;DHT22;4593;53.652;10.168;2023-07-24T07:21:27;21.90;77.90
9116;DHT22;4593;53.652;10.168;2023-07-24T07:23:52;21.90;77.50
9116;DHT22;4593;53.652;10.168;2023-07-24T07:26:18;21.80;77.80
9116;DHT22;4593;53.652;10.168;2023-07-24T07:28:44;21.60;78.40
9116;DHT22;4593;53.652;10.168;2023-07-24T07:31:12;21.40;79.10
9116;DHT22;4593;53.652;10.168;2023-07-24T07:33:38;21.20;80.00
9116;DHT22;4593;53.652;10.168;2023-07-24T07:36:05;21.10;80.70
9116;DHT22;4593;53.652;10.168;2023-07-24T07:38:31;21.10;80.70
9116;DHT22;4593;53.652;10.168;2023-07-24T07:40:57;21.10;81.10
9116;DHT22;4593;53.652;10.168;2023-07-24T07:43:23;21.20;81.60
9116;DHT22;4593;53.652;10.168;2023-07-24T07:45:49;21.30;80.80
9116;DHT22;4593;53.652;10.168;2023-07-24T07:48:14;21.40;80.60
9116;DHT22;4593;53.652;10.168;2023-07-24T07:50:40;21.50;80.20
9116;DHT22;4593;53.652;10.168;2023-07-24T07:53:06;21.70;79.60
9116;DHT22;4593;53.652;10.168;2023-07-24T07:55:31;22.00;78.90
9116;DHT22;4593;53.652;10.168;2023-07-24T07:57:57;22.30;78.00
9116;DHT22;4593;53.652;10.168;2023-07-24T08:00:23;22.50;77.40
9116;DHT22;4593;53.652;10.168;2023-07-24T08:02:48;22.60;75.30
9116;DHT22;4593;53.652;10.168;2023-07-24T08:05:14;22.70;75.30
9116;DHT22;4593;53.652;10.168;2023-07-24T08:07:41;22.70;74.50
9116;DHT22;4593;53.652;10.168;2023-07-24T08:10:07;22.70;75.40
9116;DHT22;4593;53.652;10.168;2023-07-24T08:12:32;22.80;74.60
9116;DHT22;4593;53.652;10.168;2023-07-24T08:14:58;22.90;74.90
9116;DHT22;4593;53.652;10.168;2023-07-24T08:17:24;23.10;73.80
9116;DHT22;4593;53.652;10.168;2023-07-24T08:19:49;23.10;72.80
9116;DHT22;4593;53.652;10.168;2023-07-24T08:22:15;23.20;72.80
9116;DHT22;4593;53.652;10.168;2023-07-24T08:24:41;23.30;72.40
9116;DHT22;4593;53.652;10.168;2023-07-24T08:27:06;23.30;72.70
9116;DHT22;4593;53.652;10.168;2023-07-24T08:29:32;23.30;73.10
9116;DHT22;4593;53.652;10.168;2023-07-24T08:31:58;23.30;72.90
9116;DHT22;4593;53.652;10.168;2023-07-24T08:34:24;23.30;72.70
9116;DHT22;4593;53.652;10.168;2023-07-24T08:36:50;23.30;72.20
9116;DHT22;4593;53.652;10.168;2023-07-24T08:39:16;23.40;72.30
9116;DHT22;4593;53.652;10.168;2023-07-24T08:41:41;23.40;71.80
9116;DHT22;4593;53.652;10.168;2023-07-24T08:44:08;23.50;71.60
9116;DHT22;4593;53.652;10.168;2023-07-24T08:46:36;23.60;71.60
9116;DHT22;4593;53.652;10.168;2023-07-24T08:49:03;23.40;70.80
9116;DHT22;4593;53.652;10.168;2023-07-24T08:51:29;23.20;72.00
9116;DHT22;4593;53.652;10.168;2023-07-24T08:53:57;23.00;73.20
9116;DHT22;4593;53.652;10.168;2023-07-24T08:56:23;22.90;73.30
9116;DHT22;4593;53.652;10.168;2023-07-24T08:58:48;22.80;73.80
9116;DHT22;4593;53.652;10.168;2023-07-24T09:01:14;22.60;73.80
9116;DHT22;4593;53.652;10.168;2023-07-24T09:03:40;22.60;74.90
9116;DHT22;4593;53.652;10.168;2023-07-24T09:06:06;22.60;75.00
9116;DHT22;4593;53.652;10.168;2023-07-24T09:08:39;22.60;74.70
9116;DHT22;4593;53.652;10.168;2023-07-24T09:11:07;22.80;75.10
9116;DHT22;4593;53.652;10.168;2023-07-24T09:13:35;23.30;75.30
9116;DHT22;4593;53.652;10.168;2023-07-24T09:16:01;24.00;71.40
9116;DHT22;4593;53.652;10.168;2023-07-24T09:18:39;24.20;68.90
9116;DHT22;4593;53.652;10.168;2023-07-24T09:21:05;24.60;69.20
9116;DHT22;4593;53.652;10.168;2023-07-24T09:23:30;25.10;66.20
9116;DHT22;4593;53.652;10.168;2023-07-24T09:25:56;24.80;64.30
9116;DHT22;4593;53.652;10.168;2023-07-24T09:28:22;24.40;65.90
9116;DHT22;4593;53.652;10.168;2023-07-24T09:30:56;24.10;69.20
9116;DHT22;4593;53.652;10.168;2023-07-24T09:33:36;23.90;68.80
9116;DHT22;4593;53.652;10.168;2023-07-24T09:36:03;23.90;68.80
9116;DHT22;4593;53.652;10.168;2023-07-24T09:38:29;24.20;69.00
9116;DHT22;4593;53.652;10.168;2023-07-24T09:40:55;24.30;68.50
9116;DHT22;4593;53.652;10.168;2023-07-24T09:43:23;24.40;67.90
9116;DHT22;4593;53.652;10.168;2023-07-24T09:45:50;24.60;67.40
9116;DHT22;4593;53.652;10.168;2023-07-24T09:48:17;24.90;65.70
9116;DHT22;4593;53.652;10.168;2023-07-24T09:50:45;25.20;63.60
9116;DHT22;4593;53.652;10.168;2023-07-24T09:53:55;25.40;63.10
9116;DHT22;4593;53.652;10.168;2023-07-24T09:56:18;25.50;62.80
9116;DHT22;4593;53.652;10.168;2023-07-24T09:58:44;25.50;62.70
9116;DHT22;4593;53.652;10.168;2023-07-24T10:01:11;25.50;63.10
9116;DHT22;4593;53.652;10.168;2023-07-24T10:03:46;25.50;64.30
9116;DHT22;4593;53.652;10.168;2023-07-24T10:06:12;25.70;62.50
9116;DHT22;4593;53.652;10.168;2023-07-24T10:08:40;25.70;62.20
9116;DHT22;4593;53.652;10.168;2023-07-24T10:11:13;25.70;64.70
9116;DHT22;4593;53.652;10.168;2023-07-24T10:13:43;25.70;61.10
9116;DHT22;4593;53.652;10.168;2023-07-24T10:16:09;25.50;61.10
9116;DHT22;4593;53.652;10.168;2023-07-24T10:18:42;25.60;61.50
9116;DHT22;4593;53.652;10.168;2023-07-24T10:21:09;25.90;61.50
9116;DHT22;4593;53.652;10.168;2023-07-24T10:23:43;25.60;58.70
9116;DHT22;4593;53.652;10.168;2023-07-24T10:26:10;25.70;59.00
9116;DHT22;4593;53.652;10.168;2023-07-24T10:28:37;25.90;59.70
9116;DHT22;4593;53.652;10.168;2023-07-24T10:31:05;26.10;59.20
9116;DHT22;4593;53.652;10.168;2023-07-24T10:33:35;26.30;58.80
9116;DHT22;4593;53.652;10.168;2023-07-24T10:36:08;26.40;59.60
9116;DHT22;4593;53.652;10.168;2023-07-24T10:38:40;26.50;59.30
9116;DHT22;4593;53.652;10.168;2023-07-24T10:41:08;26.00;60.30
9116;DHT22;4593;53.652;10.168;2023-07-24T10:43:47;25.90;59.00
9116;DHT22;4593;53.652;10.168;2023-07-24T10:46:14;25.80;60.90
9116;DHT22;4593;53.652;10.168;2023-07-24T10:48:45;25.70;61.80
9116;DHT22;4593;53.652;10.168;2023-07-24T10:51:11;25.70;61.60
9116;DHT22;4593;53.652;10.168;2023-07-24T10:53:37;25.70;61.50
9116;DHT22;4593;53.652;10.168;2023-07-24T10:56:06;25.90;60.80
9116;DHT22;4593;53.652;10.168;2023-07-24T10:58:32;26.20;60.10
9116;DHT22;4593;53.652;10.168;2023-07-24T11:00:58;26.50;57.90
9116;DHT22;4593;53.652;10.168;2023-07-24T11:03:25;26.40;57.80
9116;DHT22;4593;53.652;10.168;2023-07-24T11:05:51;26.30;59.30
9116;DHT22;4593;53.652;10.168;2023-07-24T11:08:18;26.20;58.50
9116;DHT22;4593;53.652;10.168;2023-07-24T11:10:48;26.20;59.50
9116;DHT22;4593;53.652;10.168;2023-07-24T11:13:15;26.30;60.60
9116;DHT22;4593;53.652;10.168;2023-07-24T11:15:41;26.20;59.40
9116;DHT22;4593;53.652;10.168;2023-07-24T11:18:07;26.10;59.00
9116;DHT22;4593;53.652;10.168;2023-07-24T11:20:45;26.00;61.70
9116;DHT22;4593;53.652;10.168;2023-07-24T11:23:11;26.10;61.20
9116;DHT22;4593;53.652;10.168;2023-07-24T11:25:37;26.40;59.40
9116;DHT22;4593;53.652;10.168;2023-07-24T11:28:07;26.90;58.10
9116;DHT22;4593;53.652;10.168;2023-07-24T11:30:34;27.20;56.70
9116;DHT22;4593;53.652;10.168;2023-07-24T11:33:02;27.30;58.40
9116;DHT22;4593;53.652;10.168;2023-07-24T11:35:28;27.40;57.10
9116;DHT22;4593;53.652;10.168;2023-07-24T11:37:54;27.10;56.50
9116;DHT22;4593;53.652;10.168;2023-07-24T11:40:19;27.00;58.10
9116;DHT22;4593;53.652;10.168;2023-07-24T11:42:47;26.90;57.10
9116;DHT22;4593;53.652;10.168;2023-07-24T11:45:13;27.00;56.40
9116;DHT22;4593;53.652;10.168;2023-07-24T11:47:44;26.90;53.80
9116;DHT22;4593;53.652;10.168;2023-07-24T11:50:10;26.80;54.70
9116;DHT22;4593;53.652;10.168;2023-07-24T11:52:43;27.10;54.60
9116;DHT22;4593;53.652;10.168;2023-07-24T11:55:17;27.00;54.00
9116;DHT22;4593;53.652;10.168;2023-07-24T11:57:54;27.00;54.20
9116;DHT22;4593;53.652;10.168;2023-07-24T12:00:21;26.70;55.10
9116;DHT22;4593;53.652;10.168;2023-07-24T12:02:47;26.60;55.20
9116;DHT22;4593;53.652;10.168;2023-07-24T12:05:14;26.60;57.80
9116;DHT22;4593;53.652;10.168;2023-07-24T12:07:42;26.70;57.40
9116;DHT22;4593;53.652;10.168;2023-07-24T12:10:09;26.90;58.20
9116;DHT22;4593;53.652;10.168;2023-07-24T12:12:47;27.30;56.10
9116;DHT22;4593;53.652;10.168;2023-07-24T12:15:14;27.70;54.80
9116;DHT22;4593;53.652;10.168;2023-07-24T12:17:40;27.50;54.20
9116;DHT22;4593;53.652;10.168;2023-07-24T12:20:08;27.30;54.60
9116;DHT22;4593;53.652;10.168;2023-07-24T12:22:35;27.10;54.40
9116;DHT22;4593;53.652;10.168;2023-07-24T12:25:02;26.80;55.30
9116;DHT22;4593;53.652;10.168;2023-07-24T12:27:28;26.40;55.80
9116;DHT22;4593;53.652;10.168;2023-07-24T12:29:53;26.30;57.80
9116;DHT22;4593;53.652;10.168;2023-07-24T12:32:19;26.40;57.50
9116;DHT22;4593;53.652;10.168;2023-07-24T12:34:52;26.50;56.80
9116;DHT22;4593;53.652;10.168;2023-07-24T12:37:18;26.50;57.20
9116;DHT22;4593;53.652;10.168;2023-07-24T12:39:45;26.40;57.80
9116;DHT22;4593;53.652;10.168;2023-07-24T12:42:11;26.40;57.10
9116;DHT22;4593;53.652;10.168;2023-07-24T12:44:37;26.30;57.80
9116;DHT22;4593;53.652;10.168;2023-07-24T12:47:03;26.00;58.80
9116;DHT22;4593;53.652;10.168;2023-07-24T12:49:29;25.70;59.80
9116;DHT22;4593;53.652;10.168;2023-07-24T12:51:55;25.30;59.80
9116;DHT22;4593;53.652;10.168;2023-07-24T12:54:21;25.10;60.30
9116;DHT22;4593;53.652;10.168;2023-07-24T12:56:48;24.90;61.00
9116;DHT22;4593;53.652;10.168;2023-07-24T12:59:14;24.90;60.80
9116;DHT22;4593;53.652;10.168;2023-07-24T13:01:40;24.90;59.50
9116;DHT22;4593;53.652;10.168;2023-07-24T13:04:05;25.10;59.70
9116;DHT22;4593;53.652;10.168;2023-07-24T13:06:31;25.30;60.30
9116;DHT22;4593;53.652;10.168;2023-07-24T13:08:57;25.40;59.80
9116;DHT22;4593;53.652;10.168;2023-07-24T13:11:22;25.50;56.30
9116;DHT22;4593;53.652;10.168;2023-07-24T13:13:48;25.40;56.70
9116;DHT22;4593;53.652;10.168;2023-07-24T13:16:16;25.40;58.10
9116;DHT22;4593;53.652;10.168;2023-07-24T13:18:42;25.40;58.30
9116;DHT22;4593;53.652;10.168;2023-07-24T13:21:07;25.50;57.60
9116;DHT22;4593;53.652;10.168;2023-07-24T13:23:34;25.70;58.30
9116;DHT22;4593;53.652;10.168;2023-07-24T13:26:00;26.00;57.80
9116;DHT22;4593;53.652;10.168;2023-07-24T13:28:25;26.00;57.80
9116;DHT22;4593;53.652;10.168;2023-07-24T13:30:51;26.00;56.80
9116;DHT22;4593;53.652;10.168;2023-07-24T13:33:17;26.00;56.30
9116;DHT22;4593;53.652;10.168;2023-07-24T13:35:42;26.10;56.40
9116;DHT22;4593;53.652;10.168;2023-07-24T13:38:08;26.20;56.30
9116;DHT22;4593;53.652;10.168;2023-07-24T13:40:35;26.30;56.00
9116;DHT22;4593;53.652;10.168;2023-07-24T13:43:00;26.50;55.80
9116;DHT22;4593;53.652;10.168;2023-07-24T13:45:27;26.60;54.80
9116;DHT22;4593;53.652;10.168;2023-07-24T13:47:54;26.40;55.40
9116;DHT22;4593;53.652;10.168;2023-07-24T13:50:19;26.30;56.10
9116;DHT22;4593;53.652;10.168;2023-07-24T13:52:45;26.10;57.10
9116;DHT22;4593;53.652;10.168;2023-07-24T13:55:11;25.80;57.80
9116;DHT22;4593;53.652;10.168;2023-07-24T13:57:37;25.70;58.40
9116;DHT22;4593;53.652;10.168;2023-07-24T14:00:02;25.60;57.70
9116;DHT22;4593;53.652;10.168;2023-07-24T14:02:28;25.50;56.80
9116;DHT22;4593;53.652;10.168;2023-07-24T14:04:54;25.40;57.50
9116;DHT22;4593;53.652;10.168;2023-07-24T14:07:20;25.40;57.70
9116;DHT22;4593;53.652;10.168;2023-07-24T14:09:45;25.70;58.20
9116;DHT22;4593;53.652;10.168;2023-07-24T14:12:11;26.00;56.20
9116;DHT22;4593;53.652;10.168;2023-07-24T14:14:37;26.20;56.10
9116;DHT22;4593;53.652;10.168;2023-07-24T14:17:02;26.30;56.40
9116;DHT22;4593;53.652;10.168;2023-07-24T14:19:28;26.40;56.20
9116;DHT22;4593;53.652;10.168;2023-07-24T14:21:54;26.60;56.10
9116;DHT22;4593;53.652;10.168;2023-07-24T14:24:19;27.00;55.90
9116;DHT22;4593;53.652;10.168;2023-07-24T14:26:45;27.30;54.40
9116;DHT22;4593;53.652;10.168;2023-07-24T14:29:11;27.40;52.70
9116;DHT22;4593;53.652;10.168;2023-07-24T14:31:37;27.40;53.50
9116;DHT22;4593;53.652;10.168;2023-07-24T14:34:03;27.50;53.90
9116;DHT22;4593;53.652;10.168;2023-07-24T14:36:29;27.60;54.00
9116;DHT22;4593;53.652;10.168;2023-07-24T14:39:02;27.80;53.10
9116;DHT22;4593;53.652;10.168;2023-07-24T14:41:28;27.90;52.50
9116;DHT22;4593;53.652;10.168;2023-07-24T14:43:53;27.60;53.00
9116;DHT22;4593;53.652;10.168;2023-07-24T14:46:19;27.40;53.40
9116;DHT22;4593;53.652;10.168;2023-07-24T14:48:44;27.40;55.20
9116;DHT22;4593;53.652;10.168;2023-07-24T14:51:10;27.30;53.90
9116;DHT22;4593;53.652;10.168;2023-07-24T14:53:36;27.10;55.00
9116;DHT22;4593;53.652;10.168;2023-07-24T14:56:03;26.80;56.40
9116;DHT22;4593;53.652;10.168;2023-07-24T14:58:29;26.70;57.10
9116;DHT22;4593;53.652;10.168;2023-07-24T15:00:54;26.30;54.60
9116;DHT22;4593;53.652;10.168;2023-07-24T15:03:20;26.10;56.50
9116;DHT22;4593;53.652;10.168;2023-07-24T15:05:46;25.90;57.90
9116;DHT22;4593;53.652;10.168;2023-07-24T15:08:11;25.70;59.10
9116;DHT22;4593;53.652;10.168;2023-07-24T15:10:37;25.40;59.70
9116;DHT22;4593;53.652;10.168;2023-07-24T15:13:03;25.10;58.20
9116;DHT22;4593;53.652;10.168;2023-07-24T15:15:28;24.80;59.90
9116;DHT22;4593;53.652;10.168;2023-07-24T15:17:55;24.60;61.30
9116;DHT22;4593;53.652;10.168;2023-07-24T15:20:21;24.40;62.20
9116;DHT22;4593;53.652;10.168;2023-07-24T15:22:47;24.20;62.80
9116;DHT22;4593;53.652;10.168;2023-07-24T15:25:13;24.20;63.00
9116;DHT22;4593;53.652;10.168;2023-07-24T15:27:39;24.00;64.10
9116;DHT22;4593;53.652;10.168;2023-07-24T15:30:05;23.90;63.80
9116;DHT22;4593;53.652;10.168;2023-07-24T15:32:31;23.80;63.30
9116;DHT22;4593;53.652;10.168;2023-07-24T15:34:57;23.70;63.80
9116;DHT22;4593;53.652;10.168;2023-07-24T15:37:23;23.60;65.40
9116;DHT22;4593;53.652;10.168;2023-07-24T15:39:49;23.40;67.30
9116;DHT22;4593;53.652;10.168;2023-07-24T15:42:15;23.10;68.50
9116;DHT22;4593;53.652;10.168;2023-07-24T15:44:41;21.80;67.10